sensor_id;sensor_type;location;lat;lon;timestamp;P1;durP1;ratioP1;P2;durP2;ratioP2
57323;SDS011;43160;51.008;18.248;2023-07-02T00:02:30;24.70;;;9.10;;
57323;SDS011;43160;51.008;18.248;2023-07-02T00:12:18;17.60;;;8.10;;
57323;SDS011;43160;51.008;18.248;2023-07-02T00:22:07;16.80;;;7.80;;
57323;SDS011;43160;51.008;18.248;2023-07-02T00:31:52;22.20;;;8.70;;
57323;SDS011;43160;51.008;18.248;2023-07-02T00:41:37;17.00;;;8.70;;
57323;SDS011;43160;51.008;18.248;2023-07-02T00:51:22;18.10;;;8.80;;
57323;SDS011;43160;51.008;18.248;2023-07-02T01:01:15;18.40;;;9.30;;
57323;SDS011;43160;51.008;18.248;2023-07-02T01:11:28;19.60;;;8.70;;
57323;SDS011;43160;51.008;18.248;2023-07-02T01:21:21;19.10;;;9.30;;
57323;SDS011;43160;51.008;18.248;2023-07-02T01:31:06;17.70;;;8.50;;
57323;SDS011;43160;51.008;18.248;2023-07-02T01:40:50;17.10;;;8.00;;
57323;SDS011;43160;51.008;18.248;2023-07-02T01:50:33;18.20;;;8.10;;
57323;SDS011;43160;51.008;18.248;2023-07-02T02:00:16;24.30;;;7.70;;
57323;SDS011;43160;51.008;18.248;2023-07-02T02:10:03;17.70;;;8.30;;
57323;SDS011;43160;51.008;18.248;2023-07-02T02:19:50;23.50;;;8.10;;
57323;SDS011;43160;51.008;18.248;2023-07-02T02:29:34;18.90;;;7.70;;
57323;SDS011;43160;51.008;18.248;2023-07-02T02:39:20;13.40;;;6.40;;
57323;SDS011;43160;51.008;18.248;2023-07-02T02:49:04;13.00;;;7.00;;
57323;SDS011;43160;51.008;18.248;2023-07-02T02:58:48;10.20;;;4.20;;
57323;SDS011;43160;51.008;18.248;2023-07-02T03:08:45;14.40;;;7.20;;
57323;SDS011;43160;51.008;18.248;2023-07-02T03:18:29;19.10;;;8.90;;
57323;SDS011;43160;51.008;18.248;2023-07-02T03:28:12;18.90;;;7.20;;
57323;SDS011;43160;51.008;18.248;2023-07-02T03:37:56;24.50;;;7.90;;
57323;SDS011;43160;51.008;18.248;2023-07-02T03:47:40;14.20;;;7.20;;
57323;SDS011;43160;51.008;18.248;2023-07-02T03:57:24;19.10;;;4.20;;
57323;SDS011;43160;51.008;18.248;2023-07-02T04:07:09;10.20;;;3.70;;
57323;SDS011;43160;51.008;18.248;2023-07-02T04:16:53;10.80;;;5.30;;
57323;SDS011;43160;51.008;18.248;2023-07-02T04:33:54;12.50;;;5.70;;
57323;SDS011;43160;51.008;18.248;2023-07-02T04:43:38;8.60;;;2.80;;
57323;SDS011;43160;51.008;18.248;2023-07-02T04:53:24;14.60;;;3.90;;
57323;SDS011;43160;51.008;18.248;2023-07-02T05:03:08;9.30;;;2.90;;
57323;SDS011;43160;51.008;18.248;2023-07-02T05:12:52;11.70;;;2.50;;
57323;SDS011;43160;51.008;18.248;2023-07-02T05:22:35;9.20;;;3.30;;
57323;SDS011;43160;51.008;18.248;2023-07-02T05:32:19;8.60;;;3.00;;
57323;SDS011;43160;51.008;18.248;2023-07-02T05:42:03;9.70;;;3.10;;
57323;SDS011;43160;51.008;18.248;2023-07-02T05:51:47;8.60;;;2.70;;
57323;SDS011;43160;51.008;18.248;2023-07-02T06:01:32;8.30;;;2.30;;
57323;SDS011;43160;51.008;18.248;2023-07-02T06:11:16;9.30;;;2.20;;
57323;SDS011;43160;51.008;18.248;2023-07-02T06:21:01;8.60;;;2.80;;
57323;SDS011;43160;51.008;18.248;2023-07-02T06:30:51;7.60;;;2.10;;
57323;SDS011;43160;51.008;18.248;2023-07-02T06:40:35;8.40;;;2.50;;
57323;SDS011;43160;51.008;18.248;2023-07-02T06:50:19;8.70;;;2.20;;
57323;SDS011;43160;51.008;18.248;2023-07-02T07:00:08;5.40;;;1.70;;
57323;SDS011;43160;51.008;18.248;2023-07-02T07:09:53;8.10;;;2.50;;
57323;SDS011;43160;51.008;18.248;2023-07-02T07:19:37;6.80;;;2.10;;
57323;SDS011;43160;51.008;18.248;2023-07-02T07:29:21;10.10;;;3.00;;
57323;SDS011;43160;51.008;18.248;2023-07-02T07:39:06;9.00;;;2.50;;
57323;SDS011;43160;51.008;18.248;2023-07-02T07:48:50;8.60;;;2.90;;
57323;SDS011;43160;51.008;18.248;2023-07-02T07:58:34;7.90;;;2.90;;
57323;SDS011;43160;51.008;18.248;2023-07-02T08:08:18;7.70;;;2.60;;
57323;SDS011;43160;51.008;18.248;2023-07-02T08:18:02;9.40;;;2.90;;
57323;SDS011;43160;51.008;18.248;2023-07-02T08:27:47;7.90;;;2.60;;
57323;SDS011;43160;51.008;18.248;2023-07-02T08:37:31;7.90;;;2.40;;
57323;SDS011;43160;51.008;18.248;2023-07-02T08:47:18;16.20;;;3.20;;
57323;SDS011;43160;51.008;18.248;2023-07-02T08:57:03;9.60;;;3.80;;
57323;SDS011;43160;51.008;18.248;2023-07-02T09:07:10;8.60;;;3.10;;
57323;SDS011;43160;51.008;18.248;2023-07-02T09:17:28;8.90;;;3.40;;
57323;SDS011;43160;51.008;18.248;2023-07-02T09:27:20;8.30;;;2.70;;
57323;SDS011;43160;51.008;18.248;2023-07-02T09:37:15;5.40;;;1.90;;
57323;SDS011;43160;51.008;18.248;2023-07-02T09:47:01;4.10;;;1.60;;
57323;SDS011;43160;51.008;18.248;2023-07-02T09:56:49;10.00;;;3.60;;
57323;SDS011;43160;51.008;18.248;2023-07-02T10:06:53;17.90;;;2.70;;
57323;SDS011;43160;51.008;18.248;2023-07-02T10:16:51;8.00;;;3.00;;
57323;SDS011;43160;51.008;18.248;2023-07-02T10:26:38;6.90;;;2.70;;
57323;SDS011;43160;51.008;18.248;2023-07-02T10:33:57;8.70;;;2.90;;
57323;SDS011;43160;51.008;18.248;2023-07-02T10:43:54;7.80;;;1.90;;
57323;SDS011;43160;51.008;18.248;2023-07-02T10:54:02;12.40;;;2.40;;
57323;SDS011;43160;51.008;18.248;2023-07-02T10:56:30;9.00;;;3.10;;
57323;SDS011;43160;51.008;18.248;2023-07-02T11:01:26;8.70;;;3.20;;
57323;SDS011;43160;51.008;18.248;2023-07-02T11:11:15;6.50;;;2.50;;
57323;SDS011;43160;51.008;18.248;2023-07-02T11:21:15;9.20;;;3.10;;
57323;SDS011;43160;51.008;18.248;2023-07-02T11:31:00;7.50;;;2.40;;
57323;SDS011;43160;51.008;18.248;2023-07-02T11:40:52;7.80;;;2.60;;
57323;SDS011;43160;51.008;18.248;2023-07-02T11:50:35;9.70;;;2.70;;
57323;SDS011;43160;51.008;18.248;2023-07-02T11:57:54;9.50;;;3.60;;
57323;SDS011;43160;51.008;18.248;2023-07-02T12:07:37;6.60;;;2.10;;
57323;SDS011;43160;51.008;18.248;2023-07-02T12:17:20;8.10;;;2.60;;
57323;SDS011;43160;51.008;18.248;2023-07-02T12:27:08;8.40;;;2.60;;
57323;SDS011;43160;51.008;18.248;2023-07-02T12:36:52;8.80;;;2.40;;
57323;SDS011;43160;51.008;18.248;2023-07-02T12:46:35;6.50;;;1.90;;
57323;SDS011;43160;51.008;18.248;2023-07-02T12:56:18;8.10;;;2.10;;
57323;SDS011;43160;51.008;18.248;2023-07-02T13:06:01;6.90;;;1.80;;
57323;SDS011;43160;51.008;18.248;2023-07-02T13:15:44;4.40;;;1.80;;
57323;SDS011;43160;51.008;18.248;2023-07-02T13:25:28;5.50;;;1.90;;
57323;SDS011;43160;51.008;18.248;2023-07-02T13:35:11;8.10;;;2.40;;
57323;SDS011;43160;51.008;18.248;2023-07-02T13:44:57;8.00;;;2.20;;
57323;SDS011;43160;51.008;18.248;2023-07-02T13:54:41;12.00;;;2.10;;
57323;SDS011;43160;51.008;18.248;2023-07-02T14:04:24;4.50;;;1.70;;
57323;SDS011;43160;51.008;18.248;2023-07-02T14:14:08;5.90;;;2.10;;
57323;SDS011;43160;51.008;18.248;2023-07-02T14:23:52;7.00;;;1.90;;
57323;SDS011;43160;51.008;18.248;2023-07-02T14:33:35;14.30;;;2.40;;
57323;SDS011;43160;51.008;18.248;2023-07-02T14:43:21;9.40;;;2.70;;
57323;SDS011;43160;51.008;18.248;2023-07-02T14:53:17;5.80;;;2.20;;
57323;SDS011;43160;51.008;18.248;2023-07-02T15:03:07;12.60;;;2.40;;
57323;SDS011;43160;51.008;18.248;2023-07-02T15:12:50;8.40;;;2.60;;
57323;SDS011;43160;51.008;18.248;2023-07-02T15:22:34;6.00;;;2.00;;
57323;SDS011;43160;51.008;18.248;2023-07-02T15:32:18;7.70;;;2.20;;
57323;SDS011;43160;51.008;18.248;2023-07-02T15:42:01;9.10;;;2.00;;
57323;SDS011;43160;51.008;18.248;2023-07-02T15:51:44;7.90;;;2.20;;
57323;SDS011;43160;51.008;18.248;2023-07-02T16:01:31;8.00;;;2.20;;
57323;SDS011;43160;51.008;18.248;2023-07-02T16:11:23;8.40;;;2.00;;
57323;SDS011;43160;51.008;18.248;2023-07-02T16:21:10;7.90;;;2.30;;
57323;SDS011;43160;51.008;18.248;2023-07-02T16:30:55;5.20;;;1.80;;
57323;SDS011;43160;51.008;18.248;2023-07-02T16:40:38;9.20;;;2.80;;
57323;SDS011;43160;51.008;18.248;2023-07-02T16:50:23;7.60;;;2.40;;
57323;SDS011;43160;51.008;18.248;2023-07-02T17:00:06;7.50;;;2.50;;
57323;SDS011;43160;51.008;18.248;2023-07-02T17:09:53;6.80;;;1.60;;
57323;SDS011;43160;51.008;18.248;2023-07-02T17:19:42;7.60;;;1.70;;
57323;SDS011;43160;51.008;18.248;2023-07-02T17:29:29;7.90;;;2.30;;
57323;SDS011;43160;51.008;18.248;2023-07-02T17:39:19;7.60;;;2.40;;
57323;SDS011;43160;51.008;18.248;2023-07-02T17:49:03;8.40;;;2.50;;
57323;SDS011;43160;51.008;18.248;2023-07-02T17:58:51;8.60;;;2.60;;
57323;SDS011;43160;51.008;18.248;2023-07-02T18:08:35;7.90;;;2.10;;
57323;SDS011;43160;51.008;18.248;2023-07-02T18:18:19;7.80;;;2.50;;
57323;SDS011;43160;51.008;18.248;2023-07-02T18:28:04;8.60;;;2.70;;
57323;SDS011;43160;51.008;18.248;2023-07-02T18:45:05;11.00;;;3.60;;
57323;SDS011;43160;51.008;18.248;2023-07-02T18:54:49;8.20;;;2.80;;
57323;SDS011;43160;51.008;18.248;2023-07-02T19:04:36;8.30;;;2.50;;
57323;SDS011;43160;51.008;18.248;2023-07-02T19:14:21;7.40;;;2.50;;
57323;SDS011;43160;51.008;18.248;2023-07-02T19:24:05;8.40;;;3.40;;
57323;SDS011;43160;51.008;18.248;2023-07-02T19:33:49;7.70;;;1.70;;
57323;SDS011;43160;51.008;18.248;2023-07-02T19:43:32;9.30;;;3.40;;
57323;SDS011;43160;51.008;18.248;2023-07-02T19:53:28;8.70;;;2.50;;
57323;SDS011;43160;51.008;18.248;2023-07-02T20:03:14;9.40;;;3.60;;
57323;SDS011;43160;51.008;18.248;2023-07-02T20:12:59;10.00;;;4.30;;
57323;SDS011;43160;51.008;18.248;2023-07-02T20:22:42;7.50;;;3.60;;
57323;SDS011;43160;51.008;18.248;2023-07-02T20:32:26;7.80;;;3.00;;
57323;SDS011;43160;51.008;18.248;2023-07-02T20:42:13;8.70;;;2.80;;
57323;SDS011;43160;51.008;18.248;2023-07-02T20:52:07;11.80;;;5.40;;
57323;SDS011;43160;51.008;18.248;2023-07-02T21:01:50;11.10;;;5.00;;
57323;SDS011;43160;51.008;18.248;2023-07-02T21:11:36;11.40;;;4.30;;
57323;SDS011;43160;51.008;18.248;2023-07-02T21:21:21;11.70;;;5.00;;
57323;SDS011;43160;51.008;18.248;2023-07-02T21:31:04;12.20;;;4.90;;
57323;SDS011;43160;51.008;18.248;2023-07-02T21:40:52;9.70;;;3.90;;
57323;SDS011;43160;51.008;18.248;2023-07-02T21:50:43;15.40;;;4.70;;
57323;SDS011;43160;51.008;18.248;2023-07-02T22:00:26;8.50;;;3.40;;
57323;SDS011;43160;51.008;18.248;2023-07-02T22:10:11;12.40;;;5.00;;
57323;SDS011;43160;51.008;18.248;2023-07-02T22:19:57;13.80;;;5.20;;
57323;SDS011;43160;51.008;18.248;2023-07-02T22:37:00;11.70;;;4.80;;
57323;SDS011;43160;51.008;18.248;2023-07-02T22:46:43;12.80;;;4.90;;
57323;SDS011;43160;51.008;18.248;2023-07-02T22:56:27;10.30;;;4.40;;
57323;SDS011;43160;51.008;18.248;2023-07-02T23:06:10;9.30;;;4.70;;
57323;SDS011;43160;51.008;18.248;2023-07-02T23:15:53;10.80;;;4.60;;
57323;SDS011;43160;51.008;18.248;2023-07-02T23:25:37;10.70;;;4.80;;
57323;SDS011;43160;51.008;18.248;2023-07-02T23:35:32;12.40;;;5.20;;
57323;SDS011;43160;51.008;18.248;2023-07-02T23:45:19;10.50;;;4.40;;
57323;SDS011;43160;51.008;18.248;2023-07-02T23:55:03;9.80;;;3.60;;
